Time;durP1;ratioP1;P1;durP2;ratioP2;P2;SDS_P1;SDS_P2;PMS_P1;PMS_P2;Temp;Humidity;BMP_temperature;BMP_pressure;BME280_temperature;BME280_humidity;BME280_pressure;Samples;Min_cycle;Max_cycle;Signal;HPM_P1;HPM_P2
2023/10/17 00:00:31;;;;;;;7.93;4.40;;;6.20;59.90;;;;;;5089422;28;20027;-61
2023/10/17 00:02:59;;;;;;;6.40;4.00;;;6.20;60.00;;;;;;5086171;28;20161;-61
2023/10/17 00:05:25;;;;;;;8.95;4.30;;;6.10;60.00;;;;;;5089276;28;20055;-60
2023/10/17 00:07:51;;;;;;;7.60;4.32;;;6.10;60.00;;;;;;5088138;28;20055;-59
2023/10/17 00:10:18;;;;;;;8.88;4.50;;;6.10;60.10;;;;;;5086086;28;20507;-61
2023/10/17 00:12:46;;;;;;;7.85;4.55;;;6.00;60.00;;;;;;5090926;28;20032;-61
2023/10/17 00:15:27;;;;;;;6.70;4.18;;;6.00;60.10;;;;;;5090507;28;20028;-61
2023/10/17 00:18:03;;;;;;;8.10;4.53;;;5.90;60.10;;;;;;5085988;28;20036;-60
2023/10/17 00:20:37;;;;;;;8.02;4.40;;;5.90;60.00;;;;;;5086254;28;20078;-61
2023/10/17 00:23:04;;;;;;;6.07;3.30;;;5.90;60.10;;;;;;5088888;28;20040;-60
2023/10/17 00:25:30;;;;;;;7.38;4.63;;;5.80;60.00;;;;;;5089068;28;20096;-60
2023/10/17 00:27:57;;;;;;;8.55;4.45;;;5.80;60.00;;;;;;5090902;28;20032;-61
2023/10/17 00:30:23;;;;;;;8.57;4.50;;;5.80;60.10;;;;;;5090783;28;20500;-60
2023/10/17 00:32:52;;;;;;;7.15;4.30;;;5.80;60.40;;;;;;5093434;28;20040;-61
2023/10/17 00:35:19;;;;;;;10.23;4.68;;;5.80;60.50;;;;;;5087689;28;20103;-61
2023/10/17 00:37:57;;;;;;;6.45;4.15;;;5.70;60.40;;;;;;5084835;28;20035;-60
2023/10/17 00:43:11;;;;;;;8.25;4.30;;;5.70;60.50;;;;;;5085582;28;20039;-60
2023/10/17 00:45:38;;;;;;;6.70;4.47;;;5.70;60.50;;;;;;5088028;28;20032;-61
2023/10/17 00:48:08;;;;;;;7.80;4.10;;;5.60;60.40;;;;;;5091401;28;20016;-59
2023/10/17 00:50:37;;;;;;;4.38;3.40;;;5.60;60.60;;;;;;5086044;28;20358;-62
2023/10/17 00:53:03;;;;;;;6.65;3.88;;;5.60;60.70;;;;;;5087865;28;20154;-61
2023/10/17 00:55:29;;;;;;;6.00;3.80;;;5.60;60.70;;;;;;5082754;28;20111;-59
2023/10/17 00:57:56;;;;;;;5.05;3.38;;;5.50;60.70;;;;;;5085828;28;20019;-60
2023/10/17 01:00:36;;;;;;;4.90;3.35;;;5.50;60.80;;;;;;5068287;28;20016;-60
2023/10/17 01:03:10;;;;;;;5.25;3.50;;;5.50;60.80;;;;;;5090851;28;20034;-60
2023/10/17 01:05:57;;;;;;;5.30;3.55;;;5.50;60.80;;;;;;5090559;28;20103;-60
2023/10/17 01:08:27;;;;;;;8.35;3.45;;;5.40;61.00;;;;;;5080221;28;20032;-60
2023/10/17 01:10:52;;;;;;;4.63;3.45;;;5.40;60.50;;;;;;5086670;28;20028;-60
2023/10/17 01:13:18;;;;;;;4.35;3.03;;;5.40;60.50;;;;;;5086771;28;20085;-61
2023/10/17 01:15:44;;;;;;;5.47;3.03;;;5.30;60.60;;;;;;5088317;28;20076;-61
2023/10/17 01:18:10;;;;;;;4.75;2.72;;;5.30;60.80;;;;;;5089578;28;21197;-60
2023/10/17 01:20:36;;;;;;;4.93;2.78;;;5.20;61.00;;;;;;5083888;28;20059;-61
2023/10/17 01:23:02;;;;;;;3.97;2.53;;;5.20;61.10;;;;;;5087636;28;20080;-61
2023/10/17 01:25:35;;;;;;;6.07;3.08;;;5.20;61.10;;;;;;5095715;28;20089;-60
2023/10/17 01:28:00;;;;;;;5.10;2.90;;;5.10;61.00;;;;;;5085567;28;20039;-61
2023/10/17 01:30:29;;;;;;;3.22;2.53;;;5.10;61.00;;;;;;5087861;28;20039;-61
2023/10/17 01:32:56;;;;;;;4.00;2.70;;;5.10;61.00;;;;;;5082182;28;20064;-60
2023/10/17 01:35:23;;;;;;;3.30;2.65;;;5.00;60.80;;;;;;5084714;28;20028;-60
2023/10/17 01:37:49;;;;;;;4.05;2.47;;;5.00;60.90;;;;;;5083721;28;20517;-61
2023/10/17 01:40:33;;;;;;;3.60;2.60;;;5.00;60.90;;;;;;5083073;28;20114;-60
2023/10/17 01:42:59;;;;;;;3.53;2.70;;;5.00;61.10;;;;;;5090346;28;20035;-61
2023/10/17 01:45:29;;;;;;;3.50;2.60;;;4.90;61.00;;;;;;5037916;28;20028;-59
2023/10/17 01:47:58;;;;;;;4.32;2.80;;;4.90;61.20;;;;;;5084563;28;20028;-60
2023/10/17 01:50:24;;;;;;;4.28;2.85;;;4.90;61.20;;;;;;5065675;28;20069;-60
2023/10/17 01:52:53;;;;;;;3.70;2.90;;;4.80;61.10;;;;;;5086248;28;20081;-61
2023/10/17 01:55:24;;;;;;;3.95;3.17;;;4.80;61.10;;;;;;5083369;28;20035;-61
2023/10/17 01:57:54;;;;;;;4.22;3.15;;;4.80;61.20;;;;;;5085210;28;20075;-60
2023/10/17 02:02:58;;;;;;;4.63;2.92;;;4.80;61.30;;;;;;5088534;28;20551;-60
2023/10/17 02:05:24;;;;;;;4.38;2.47;;;4.70;61.40;;;;;;5087069;28;20829;-59
2023/10/17 02:07:50;;;;;;;4.35;2.60;;;4.70;62.10;;;;;;5082608;28;20032;-60
2023/10/17 02:10:18;;;;;;;5.78;3.00;;;4.70;61.50;;;;;;5083330;28;20032;-60
2023/10/17 02:12:49;;;;;;;3.08;2.63;;;4.70;61.50;;;;;;5083545;28;20043;-61
2023/10/17 02:15:19;;;;;;;3.10;2.60;;;4.70;61.40;;;;;;5088853;28;20442;-61
2023/10/17 02:17:46;;;;;;;3.90;2.80;;;4.60;61.20;;;;;;5089113;28;20408;-60
2023/10/17 02:20:29;;;;;;;4.68;2.65;;;4.60;61.30;;;;;;5085134;28;20040;-61
2023/10/17 02:23:14;;;;;;;3.85;2.67;;;4.60;61.30;;;;;;5084024;28;20348;-60
2023/10/17 02:25:41;;;;;;;4.28;2.78;;;4.60;61.70;;;;;;5086808;28;20036;-59
2023/10/17 02:28:07;;;;;;;3.42;2.75;;;4.50;61.40;;;;;;5085417;28;20021;-60
2023/10/17 02:30:33;;;;;;;5.05;2.75;;;4.50;61.60;;;;;;5084818;28;20034;-59
2023/10/17 02:33:01;;;;;;;3.72;2.83;;;4.50;61.50;;;;;;5086296;28;20048;-59
2023/10/17 02:35:42;;;;;;;3.28;2.60;;;4.50;61.40;;;;;;5083824;28;20024;-61
2023/10/17 02:38:08;;;;;;;4.75;2.60;;;4.40;61.40;;;;;;5089211;28;20097;-61
2023/10/17 02:40:37;;;;;;;3.35;2.55;;;4.40;61.40;;;;;;5085281;28;20058;-60
2023/10/17 02:43:03;;;;;;;3.75;2.35;;;4.40;61.50;;;;;;5086493;28;20024;-61
2023/10/17 02:45:32;;;;;;;5.03;2.75;;;4.40;61.60;;;;;;5039948;28;20028;-58
2023/10/17 02:48:11;;;;;;;3.35;2.53;;;4.40;61.70;;;;;;5085920;28;20048;-61
2023/10/17 02:53:06;;;;;;;3.75;2.75;;;4.30;61.50;;;;;;5086707;28;20051;-60
2023/10/17 02:55:31;;;;;;;3.72;2.42;;;4.30;61.60;;;;;;5089092;28;20409;-60
2023/10/17 02:57:57;;;;;;;4.80;2.80;;;4.30;61.70;;;;;;5088396;28;20564;-60
2023/10/17 03:00:25;;;;;;;4.15;2.50;;;4.30;61.80;;;;;;5083726;28;20031;-61
2023/10/17 03:02:58;;;;;;;5.25;2.60;;;4.30;61.70;;;;;;5082565;28;20204;-61
2023/10/17 03:05:25;;;;;;;3.50;2.70;;;4.30;61.80;;;;;;5084688;28;20020;-61
2023/10/17 03:07:51;;;;;;;4.82;2.58;;;4.20;61.80;;;;;;5084490;28;20020;-59
2023/10/17 03:10:39;;;;;;;2.53;2.17;;;4.20;61.90;;;;;;5087092;28;20103;-60
2023/10/17 03:13:53;;;;;;;3.35;2.20;;;4.20;62.00;;;;;;5079767;28;20413;-60
2023/10/17 03:16:14;;;;;;;4.43;2.30;;;4.20;62.00;;;;;;5076115;28;20051;-61
2023/10/17 03:18:39;;;;;;;5.05;2.40;;;4.20;61.80;;;;;;5086391;28;20028;-59
2023/10/17 03:21:08;;;;;;;7.63;2.25;;;4.10;61.60;;;;;;5084456;28;20035;-61
2023/10/17 03:23:34;;;;;;;2.92;2.03;;;4.10;61.80;;;;;;5065912;28;20020;-60
2023/10/17 03:26:00;;;;;;;4.25;2.20;;;4.10;61.90;;;;;;5085289;28;20502;-60
2023/10/17 03:28:33;;;;;;;2.33;2.00;;;4.10;62.00;;;;;;5084465;28;20020;-60
2023/10/17 03:30:59;;;;;;;3.13;2.40;;;4.10;62.30;;;;;;5083592;28;20051;-60
2023/10/17 03:33:29;;;;;;;7.60;2.17;;;4.10;62.30;;;;;;5083680;28;20032;-60
2023/10/17 03:38:31;;;;;;;6.93;2.33;;;4.10;62.60;;;;;;5088973;28;20020;-60
2023/10/17 03:41:14;;;;;;;2.97;2.17;;;4.10;62.50;;;;;;5082877;28;20077;-60
2023/10/17 03:43:49;;;;;;;3.30;2.20;;;4.10;62.60;;;;;;5085767;28;20047;-60
2023/10/17 03:46:15;;;;;;;;;;;4.10;62.50;;;;;;5020698;28;20103;-62
2023/10/17 03:48:56;;;;;;;8.00;2.20;;;4.10;63.30;;;;;;5084759;28;19908;-61
2023/10/17 03:51:24;;;;;;;3.55;2.40;;;4.10;62.00;;;;;;5083038;28;20494;-60
2023/10/17 03:53:53;;;;;;;4.25;2.47;;;4.10;62.20;;;;;;5082812;28;20509;-60
2023/10/17 03:56:25;;;;;;;3.75;2.05;;;4.10;62.40;;;;;;5081944;28;20032;-60
2023/10/17 03:59:18;;;;;;;5.95;2.33;;;4.00;62.40;;;;;;5089527;28;20494;-60
2023/10/17 04:01:39;;;;;;;2.50;2.05;;;4.00;62.50;;;;;;5087763;28;20039;-60
2023/10/17 04:04:05;;;;;;;2.88;2.47;;;4.00;62.70;;;;;;5090114;28;20020;-60
2023/10/17 04:06:40;;;;;;;5.10;2.60;;;4.00;62.80;;;;;;5090316;28;20039;-60
2023/10/17 04:09:17;;;;;;;4.13;2.45;;;4.00;63.00;;;;;;5064380;28;20028;-63
2023/10/17 04:11:49;;;;;;;5.55;2.78;;;4.00;62.90;;;;;;5086074;28;20502;-60
2023/10/17 04:14:17;;;;;;;8.80;2.95;;;4.00;62.90;;;;;;5086229;28;20043;-60
2023/10/17 04:16:48;;;;;;;6.65;3.53;;;4.00;62.70;;;;;;5087889;28;20084;-60
2023/10/17 04:19:20;;;;;;;5.07;3.03;;;4.00;62.90;;;;;;5088045;28;20028;-60
2023/10/17 04:21:51;;;;;;;6.80;2.80;;;4.00;63.00;;;;;;5087823;28;20016;-61
2023/10/17 04:29:42;;;;;;;6.60;2.90;;;4.10;63.00;;;;;;5092375;28;20035;-60
2023/10/17 04:32:14;;;;;;;4.00;2.85;;;4.10;62.90;;;;;;5086601;28;20090;-60
2023/10/17 04:34:46;;;;;;;4.00;2.55;;;4.10;62.70;;;;;;5084698;28;20023;-59
2023/10/17 04:37:31;;;;;;;3.40;2.60;;;4.10;63.00;;;;;;5086040;28;20085;-60
2023/10/17 04:40:20;;;;;;;4.90;2.35;;;4.10;63.20;;;;;;5089466;28;20508;-60
2023/10/17 04:45:23;;;;;;;;;;;4.10;63.20;;;;;;5087432;28;20051;-59
2023/10/17 04:48:09;;;;;;;3.13;2.38;;;4.20;64.10;;;;;;5086270;28;20286;-60
2023/10/17 04:50:44;;;;;;;4.65;2.70;;;4.20;62.80;;;;;;5085524;28;20195;-60
2023/10/17 04:53:18;;;;;;;4.32;2.83;;;4.20;63.00;;;;;;5070108;28;20162;-59
2023/10/17 04:56:01;;;;;;;3.38;2.10;;;4.20;63.10;;;;;;5085048;28;20357;-59
2023/10/17 04:58:39;;;;;;;5.40;2.92;;;4.20;63.10;;;;;;5087469;28;20115;-59
2023/10/17 05:03:50;;;;;;;5.40;3.38;;;4.20;63.10;;;;;;5088149;28;20028;-61
2023/10/17 05:06:21;;;;;;;6.93;3.17;;;4.20;63.30;;;;;;5083865;28;20027;-60
2023/10/17 05:09:00;;;;;;;7.10;4.38;;;4.30;63.50;;;;;;5089855;28;20031;-59
2023/10/17 06:17:29;;;;;;;8.63;3.40;;;4.80;64.10;;;;;;5087127;28;20038;-60
2023/10/17 06:19:58;;;;;;;7.50;3.58;;;4.80;64.10;;;;;;5079663;28;20040;-60
2023/10/17 06:28:20;;;;;;;8.27;3.60;;;4.90;64.20;;;;;;5086905;28;20020;-60
2023/10/17 06:30:35;;;;;;;6.32;4.35;;;4.90;64.30;;;;;;5082968;28;20032;-61
2023/10/17 06:33:19;;;;;;;10.20;5.40;;;5.00;64.20;;;;;;5081453;28;20047;-60
2023/10/17 06:35:55;;;;;;;9.82;5.60;;;5.00;64.20;;;;;;5079838;28;20377;-61
2023/10/17 06:38:27;;;;;;;9.18;5.50;;;5.00;64.30;;;;;;5080658;28;20497;-61
2023/10/17 06:40:53;;;;;;;7.22;4.75;;;5.10;64.50;;;;;;5080249;28;20039;-62
2023/10/17 06:43:28;;;;;;;7.63;4.68;;;5.10;64.60;;;;;;5082103;28;20409;-60
2023/10/17 06:45:57;;;;;;;9.18;4.78;;;5.20;64.70;;;;;;5084905;28;20028;-60
2023/10/17 06:48:35;;;;;;;;;;;5.20;64.80;;;;;;5024520;28;20559;-61
2023/10/17 06:51:29;;;;;;;11.02;4.30;;;5.30;65.60;;;;;;5084001;28;19908;-62
2023/10/17 06:53:48;;;;;;;8.63;4.35;;;5.30;64.20;;;;;;5083737;28;20043;-61
2023/10/17 06:56:16;;;;;;;8.45;5.15;;;5.40;64.30;;;;;;5087433;28;20027;-60
2023/10/17 06:58:42;;;;;;;21.27;10.43;;;5.50;64.50;;;;;;5082133;28;20025;-62
2023/10/17 07:01:19;;;;;;;19.42;9.88;;;5.50;64.50;;;;;;5088874;28;20016;-61
2023/10/17 07:03:45;;;;;;;19.27;9.85;;;5.60;64.80;;;;;;5079232;28;20036;-60
2023/10/17 07:06:12;;;;;;;17.40;9.23;;;5.60;64.50;;;;;;5081467;28;20032;-60
2023/10/17 07:08:38;;;;;;;14.20;8.85;;;5.60;64.50;;;;;;5066910;28;20595;-62
2023/10/17 07:11:26;;;;;;;16.20;8.80;;;5.70;64.70;;;;;;5084132;28;20036;-60
2023/10/17 07:16:34;;;;;;;21.15;10.75;;;5.80;64.60;;;;;;5085593;28;20521;-60
2023/10/17 07:20:12;;;;;;;19.90;9.82;;;5.90;64.70;;;;;;5088218;28;20024;-60
2023/10/17 07:24:28;;;;;;;15.30;7.90;;;6.00;64.90;;;;;;5079178;28;20176;-61
2023/10/17 07:26:55;;;;;;;16.55;8.52;;;6.10;65.00;;;;;;5090040;28;20150;-61
2023/10/17 07:29:25;;;;;;;12.02;5.75;;;6.20;65.20;;;;;;5081852;28;20065;-61
2023/10/17 07:31:54;;;;;;;11.75;5.70;;;6.30;65.40;;;;;;5088447;28;20048;-60
2023/10/17 07:34:24;;;;;;;9.45;5.32;;;6.40;65.40;;;;;;5086570;28;20051;-61
2023/10/17 07:36:58;;;;;;;10.20;6.50;;;6.50;65.70;;;;;;5085917;28;20221;-60
2023/10/17 07:39:29;;;;;;;11.45;5.38;;;6.60;65.70;;;;;;5081072;28;20032;-61
2023/10/17 07:41:55;;;;;;;10.90;5.50;;;6.70;65.40;;;;;;5082989;28;20180;-61
2023/10/17 07:44:26;;;;;;;27.60;6.15;;;6.70;65.30;;;;;;5085657;28;20502;-62
2023/10/17 07:49:35;;;;;;;10.13;6.32;;;6.90;65.40;;;;;;5085507;28;20748;-61
2023/10/17 07:52:10;;;;;;;15.57;8.13;;;7.00;65.40;;;;;;5086459;28;20032;-61
2023/10/17 07:54:45;;;;;;;10.25;6.35;;;7.10;65.50;;;;;;5086419;28;20409;-61
2023/10/17 07:57:23;;;;;;;12.88;5.78;;;7.30;65.40;;;;;;5088154;28;20050;-61
2023/10/17 07:59:52;;;;;;;7.43;5.20;;;7.40;65.20;;;;;;5086378;28;20582;-62
2023/10/17 08:02:20;;;;;;;9.18;5.20;;;7.50;65.10;;;;;;5090396;28;20322;-60
2023/10/17 08:04:48;;;;;;;13.13;5.93;;;7.60;65.10;;;;;;5088385;28;20028;-61
2023/10/17 08:07:15;;;;;;;8.32;5.28;;;7.70;65.00;;;;;;5084101;28;20046;-61
2023/10/17 08:09:50;;;;;;;7.75;4.90;;;7.80;64.90;;;;;;5088196;28;20024;-61
2023/10/17 08:12:21;;;;;;;10.07;5.25;;;7.90;64.60;;;;;;5087210;28;20508;-62
2023/10/17 08:14:52;;;;;;;8.43;5.03;;;8.00;64.50;;;;;;5086201;28;20058;-61
2023/10/17 08:17:19;;;;;;;8.70;5.47;;;8.10;64.50;;;;;;5086615;28;20073;-61
2023/10/17 08:20:00;;;;;;;9.00;5.28;;;8.10;64.40;;;;;;5086146;28;20032;-60
2023/10/17 08:22:27;;;;;;;8.48;5.57;;;8.20;64.20;;;;;;5084112;28;20458;-61
2023/10/17 08:24:53;;;;;;;11.10;6.22;;;8.30;64.20;;;;;;5084792;28;20040;-61
2023/10/17 08:29:49;;;;;;;14.88;7.95;;;8.40;64.10;;;;;;5088696;28;20028;-61
2023/10/17 08:34:59;;;;;;;14.40;7.35;;;8.50;64.40;;;;;;5086312;28;20095;-61
2023/10/17 08:37:29;;;;;;;16.63;8.57;;;8.60;64.50;;;;;;5082832;28;20024;-60
2023/10/17 08:39:57;;;;;;;18.00;9.00;;;8.70;64.50;;;;;;5083032;28;20032;-60
2023/10/17 08:44:55;;;;;;;17.98;9.75;;;8.80;64.20;;;;;;5085946;28;20063;-61
2023/10/17 08:47:25;;;;;;;13.25;8.70;;;8.90;64.10;;;;;;5084783;28;20182;-61
2023/10/17 08:49:54;;;;;;;15.93;9.00;;;9.00;64.10;;;;;;5083497;28;20059;-60
2023/10/17 08:52:31;;;;;;;19.10;9.68;;;9.00;63.90;;;;;;5084552;28;20028;-60
2023/10/17 08:54:56;;;;;;;18.85;9.82;;;9.10;64.00;;;;;;5090643;28;20050;-61
2023/10/17 08:57:23;;;;;;;14.13;9.02;;;9.10;63.70;;;;;;5084212;28;20028;-62
2023/10/17 09:04:49;;;;;;;25.88;10.75;;;9.40;64.10;;;;;;5085143;28;20044;-61
2023/10/17 09:07:31;;;;;;;20.00;10.75;;;9.40;63.80;;;;;;5089168;28;20012;-61
2023/10/17 09:10:04;;;;;;;18.80;10.20;;;9.50;63.70;;;;;;5084950;28;20032;-62
2023/10/17 09:12:42;;;;;;;16.23;9.83;;;9.60;63.30;;;;;;5084064;28;20044;-61
2023/10/17 09:15:27;;;;;;;16.45;9.45;;;9.70;63.10;;;;;;5085958;28;20024;-60
2023/10/17 09:18:03;;;;;;;;;;;9.80;63.60;;;;;;5085730;28;20033;-61
2023/10/17 09:20:39;;;;;;;18.13;9.75;;;9.90;63.60;;;;;;5088478;28;19916;-61
2023/10/17 09:23:28;;;;;;;17.85;10.40;;;9.80;62.70;;;;;;5084977;28;20127;-61
2023/10/17 09:26:00;;;;;;;21.13;10.13;;;9.90;62.80;;;;;;5085402;28;20036;-61
2023/10/17 09:28:28;;;;;;;17.00;9.77;;;10.00;62.80;;;;;;5085940;28;20028;-61
2023/10/17 09:31:12;;;;;;;18.10;10.90;;;10.00;62.80;;;;;;5088429;28;20051;-61
2023/10/17 09:33:50;;;;;;;22.73;9.50;;;10.10;62.90;;;;;;5091453;28;20050;-60
2023/10/17 09:36:17;;;;;;;16.70;9.80;;;10.10;62.80;;;;;;5084202;28;20085;-61
2023/10/17 09:38:43;;;;;;;14.80;9.43;;;10.20;62.60;;;;;;5087601;28;20028;-62
2023/10/17 09:41:17;;;;;;;16.75;10.07;;;10.30;62.70;;;;;;5086631;28;20115;-61
2023/10/17 09:43:48;;;;;;;18.58;11.00;;;10.40;62.90;;;;;;5088769;28;20374;-61
2023/10/17 09:46:16;;;;;;;18.17;9.70;;;10.50;62.70;;;;;;5090060;28;20039;-61
2023/10/17 09:48:43;;;;;;;14.70;9.80;;;10.60;62.50;;;;;;5090009;28;20020;-61
2023/10/17 09:51:17;;;;;;;24.90;12.38;;;10.70;62.30;;;;;;5085410;28;20120;-62
2023/10/17 09:53:45;;;;;;;21.63;11.97;;;10.80;62.30;;;;;;5084118;28;20034;-61
2023/10/17 09:56:17;;;;;;;19.40;10.73;;;10.90;62.30;;;;;;5069942;28;20031;-60
2023/10/17 09:58:57;;;;;;;16.50;10.13;;;10.90;62.30;;;;;;5083606;28;20035;-61
2023/10/17 10:01:25;;;;;;;17.38;10.80;;;11.00;62.40;;;;;;5081421;28;20032;-61
2023/10/17 10:03:58;;;;;;;15.85;10.85;;;11.20;62.10;;;;;;5085342;28;20058;-61
2023/10/17 10:06:32;;;;;;;15.10;9.90;;;11.30;62.10;;;;;;5085661;28;20103;-61
2023/10/17 10:09:05;;;;;;;18.75;11.07;;;11.30;61.90;;;;;;5086368;28;20051;-62
2023/10/17 10:11:53;;;;;;;21.23;11.23;;;11.70;61.70;;;;;;5085750;28;20024;-61
2023/10/17 10:14:27;;;;;;;12.77;9.68;;;11.50;61.10;;;;;;5081281;28;20036;-61
2023/10/17 10:16:57;;;;;;;19.20;10.45;;;11.60;60.90;;;;;;5083588;28;20047;-62
2023/10/17 10:19:24;;;;;;;15.82;10.45;;;11.60;60.70;;;;;;5084904;28;20027;-61
2023/10/17 10:21:55;;;;;;;19.77;12.15;;;11.70;60.50;;;;;;5085339;28;20557;-60
2023/10/17 10:24:36;;;;;;;23.23;12.43;;;11.70;60.50;;;;;;5086243;28;20048;-62
2023/10/17 10:27:14;;;;;;;18.63;10.38;;;11.70;60.30;;;;;;5093065;28;20049;-62
2023/10/17 10:29:40;;;;;;;20.88;11.07;;;11.70;60.50;;;;;;5089810;28;20024;-62
2023/10/17 10:32:26;;;;;;;17.98;9.63;;;11.70;60.50;;;;;;5086092;28;20027;-61
2023/10/17 10:34:53;;;;;;;16.40;10.30;;;11.80;60.50;;;;;;5085844;28;20096;-62
2023/10/17 10:37:20;;;;;;;17.38;11.40;;;11.80;60.60;;;;;;5084760;28;20380;-60
2023/10/17 10:40:11;;;;;;;18.67;10.95;;;11.90;60.50;;;;;;5083975;28;20069;-61
2023/10/17 10:42:44;;;;;;;14.63;9.77;;;11.90;60.20;;;;;;5087036;28;20016;-60
2023/10/17 10:45:47;;;;;;;18.23;9.27;;;12.00;60.30;;;;;;5088975;28;20070;-62
2023/10/17 10:48:17;;;;;;;15.82;9.63;;;12.00;60.00;;;;;;5014939;28;20436;-61
2023/10/17 10:50:48;;;;;;;14.73;8.98;;;12.00;59.90;;;;;;5019999;28;20827;-61
2023/10/17 10:53:31;;;;;;;15.75;9.63;;;12.10;59.90;;;;;;5020570;28;20141;-61
2023/10/17 10:56:01;;;;;;;16.58;9.60;;;12.10;59.90;;;;;;5018915;28;20083;-62
2023/10/17 10:58:29;;;;;;;14.43;9.48;;;12.10;59.70;;;;;;5021212;28;20037;-60
2023/10/17 11:00:59;;;;;;;16.48;9.90;;;12.20;59.70;;;;;;5019675;28;20037;-60
2023/10/17 11:03:26;;;;;;;17.50;9.20;;;12.20;59.60;;;;;;5017957;28;20581;-61
2023/10/17 11:05:53;;;;;;;17.55;9.52;;;12.20;59.70;;;;;;5017138;28;20038;-62
2023/10/17 11:08:22;;;;;;;14.80;9.35;;;12.20;59.70;;;;;;5019148;28;20085;-61
2023/10/17 11:10:48;;;;;;;15.55;9.75;;;12.30;59.60;;;;;;5023707;28;20050;-62
2023/10/17 11:13:17;;;;;;;14.13;8.63;;;12.30;59.70;;;;;;5020478;28;20145;-61
2023/10/17 11:15:45;;;;;;;14.80;9.57;;;12.40;59.70;;;;;;5021619;28;20029;-61
2023/10/17 11:18:11;;;;;;;11.82;8.30;;;12.40;59.60;;;;;;5021490;28;20057;-61
2023/10/17 11:20:40;;;;;;;11.80;8.63;;;12.50;60.30;;;;;;5020176;28;20037;-60
2023/10/17 11:23:13;;;;;;;14.38;8.70;;;12.50;59.60;;;;;;5035290;28;20032;-62
2023/10/17 11:25:45;;;;;;;16.02;8.60;;;12.60;59.50;;;;;;5086874;28;20382;-62
2023/10/17 11:28:11;;;;;;;11.25;8.15;;;12.70;59.40;;;;;;5084263;28;20028;-61
2023/10/17 11:30:41;;;;;;;11.93;8.27;;;12.80;59.20;;;;;;5086079;28;20580;-61
2023/10/17 11:33:11;;;;;;;12.55;7.75;;;12.80;59.20;;;;;;5085906;28;20443;-61
2023/10/17 11:35:52;;;;;;;12.43;8.25;;;12.90;59.20;;;;;;5088335;28;20020;-62
2023/10/17 11:38:38;;;;;;;10.82;7.97;;;12.90;58.70;;;;;;5090770;28;20554;-62
2023/10/17 11:41:07;;;;;;;12.05;7.47;;;13.00;59.10;;;;;;5086364;28;20032;-61
2023/10/17 11:43:42;;;;;;;10.82;7.57;;;12.90;58.90;;;;;;5087927;28;20040;-62
2023/10/17 11:46:16;;;;;;;11.55;7.43;;;13.00;58.90;;;;;;5084320;28;20028;-60
2023/10/17 11:48:44;;;;;;;9.63;6.78;;;13.00;59.00;;;;;;5085413;28;20336;-62
2023/10/17 11:51:16;;;;;;;10.13;6.78;;;13.10;58.90;;;;;;5088294;28;20428;-61
2023/10/17 11:54:03;;;;;;;10.82;7.15;;;13.10;58.80;;;;;;5095827;27;20118;-60
2023/10/17 11:56:36;;;;;;;10.02;6.43;;;13.10;58.60;;;;;;5089223;28;20051;-61
2023/10/17 11:59:03;;;;;;;12.90;7.32;;;13.10;58.70;;;;;;5086273;28;20028;-62
2023/10/17 12:01:30;;;;;;;10.27;6.57;;;13.20;58.60;;;;;;5086026;28;20417;-61
2023/10/17 12:03:58;;;;;;;9.20;5.97;;;13.20;58.50;;;;;;5089742;28;20814;-62
2023/10/17 12:06:27;;;;;;;9.55;6.15;;;13.20;58.30;;;;;;5070568;28;20061;-62
2023/10/17 12:08:56;;;;;;;6.93;5.65;;;13.20;58.20;;;;;;5096030;27;20073;-60
2023/10/17 12:11:24;;;;;;;10.18;6.38;;;13.20;58.10;;;;;;5087635;28;20032;-61
2023/10/17 12:13:51;;;;;;;10.25;6.65;;;13.20;58.10;;;;;;5086612;28;20044;-62
2023/10/17 12:16:20;;;;;;;11.40;7.95;;;13.20;58.10;;;;;;5089503;28;20496;-61
2023/10/17 12:18:46;;;;;;;12.73;6.78;;;13.20;58.20;;;;;;5091235;28;20039;-62
2023/10/17 12:21:14;;;;;;;11.85;6.68;;;13.30;58.00;;;;;;5086030;28;20478;-62
2023/10/17 12:23:41;;;;;;;17.30;11.05;;;13.20;58.00;;;;;;5072343;28;20104;-62
2023/10/17 12:26:19;;;;;;;17.27;9.85;;;13.30;58.10;;;;;;5094137;28;20073;-61
2023/10/17 12:28:45;;;;;;;8.82;6.60;;;13.30;58.20;;;;;;5084814;28;20069;-61
2023/10/17 12:31:16;;;;;;;12.07;6.85;;;13.30;58.10;;;;;;5086724;28;20089;-62
2023/10/17 12:33:42;;;;;;;8.88;6.05;;;13.30;58.00;;;;;;5090771;28;20515;-62
2023/10/17 12:36:08;;;;;;;8.52;5.75;;;13.40;57.90;;;;;;5070278;28;20164;-60
2023/10/17 12:38:33;;;;;;;10.05;6.43;;;13.30;57.80;;;;;;5090538;28;20103;-62
2023/10/17 12:41:02;;;;;;;8.90;6.70;;;13.30;57.80;;;;;;5086114;28;20587;-61
2023/10/17 12:43:28;;;;;;;8.65;6.55;;;13.30;57.90;;;;;;5088844;28;20031;-61
2023/10/17 12:45:54;;;;;;;8.60;5.72;;;13.30;58.30;;;;;;5072901;28;20036;-61
2023/10/17 12:48:39;;;;;;;10.20;5.30;;;13.40;57.50;;;;;;5090127;28;20424;-62
2023/10/17 12:51:11;;;;;;;8.60;5.78;;;13.40;57.40;;;;;;5085947;28;20043;-61
2023/10/17 12:53:37;;;;;;;11.40;7.22;;;13.30;57.60;;;;;;5080674;28;20028;-62
2023/10/17 12:56:05;;;;;;;9.98;6.43;;;13.30;57.80;;;;;;5089312;28;20024;-61
2023/10/17 12:58:32;;;;;;;11.35;7.78;;;13.30;57.90;;;;;;5071529;28;20138;-61
2023/10/17 13:00:58;;;;;;;9.32;7.20;;;13.30;57.90;;;;;;5094167;28;20027;-61
2023/10/17 13:03:25;;;;;;;11.38;7.90;;;13.30;57.90;;;;;;5087564;28;20040;-61
2023/10/17 13:05:51;;;;;;;6.53;5.25;;;13.40;57.90;;;;;;5088509;28;20032;-62
2023/10/17 13:08:17;;;;;;;6.70;4.43;;;13.40;57.80;;;;;;5082141;28;20616;-60
2023/10/17 13:10:43;;;;;;;7.65;5.28;;;13.40;57.80;;;;;;5088243;28;20085;-61
2023/10/17 13:13:11;;;;;;;9.18;5.30;;;13.40;57.90;;;;;;5086966;28;20055;-61
2023/10/17 13:15:38;;;;;;;8.55;5.20;;;13.50;57.90;;;;;;5085863;28;20478;-61
2023/10/17 13:18:07;;;;;;;6.75;4.50;;;13.50;57.70;;;;;;5086892;28;20559;-61
2023/10/17 13:20:33;;;;;;;8.13;5.15;;;13.50;57.60;;;;;;5088482;28;20031;-61
2023/10/17 13:23:03;;;;;;;8.13;5.20;;;13.50;57.50;;;;;;5088496;28;20077;-61
2023/10/17 13:25:36;;;;;;;6.97;4.50;;;13.50;57.40;;;;;;5083510;28;20502;-60
2023/10/17 13:28:05;;;;;;;7.47;5.33;;;13.50;57.30;;;;;;5089026;28;20028;-61
2023/10/17 13:30:33;;;;;;;8.07;4.40;;;13.50;57.30;;;;;;5073410;28;20274;-62
2023/10/17 13:32:59;;;;;;;6.00;4.60;;;13.40;57.30;;;;;;5079655;28;20471;-61
2023/10/17 13:35:27;;;;;;;7.13;4.63;;;13.40;57.30;;;;;;5087427;28;20056;-61
2023/10/17 13:37:54;;;;;;;7.68;4.88;;;13.40;57.30;;;;;;5085686;28;20024;-61
2023/10/17 13:40:21;;;;;;;7.00;4.65;;;13.40;57.20;;;;;;5091013;28;20608;-61
2023/10/17 13:42:50;;;;;;;5.45;4.25;;;13.40;57.30;;;;;;5086161;28;20038;-62
2023/10/17 13:45:17;;;;;;;9.57;4.95;;;13.30;57.40;;;;;;5084103;28;20024;-61
2023/10/17 13:47:43;;;;;;;9.63;5.30;;;13.30;57.30;;;;;;5069853;28;20031;-61
2023/10/17 13:50:13;;;;;;;7.97;4.82;;;13.30;57.30;;;;;;5089018;28;20020;-62
2023/10/17 13:52:41;;;;;;;7.35;5.22;;;13.20;57.40;;;;;;5085784;28;20048;-61
2023/10/17 13:55:09;;;;;;;7.07;4.88;;;13.30;57.40;;;;;;5084627;28;20020;-62
2023/10/17 13:57:36;;;;;;;8.13;4.90;;;13.20;57.30;;;;;;5087294;28;20039;-61
2023/10/17 14:00:05;;;;;;;9.88;5.55;;;13.20;57.20;;;;;;5084304;28;20036;-61
2023/10/17 14:02:32;;;;;;;8.38;5.70;;;13.10;57.20;;;;;;5085361;28;20031;-61
2023/10/17 14:04:57;;;;;;;8.15;5.05;;;13.10;57.30;;;;;;5087163;28;20129;-62
2023/10/17 14:07:23;;;;;;;9.70;5.35;;;13.00;57.30;;;;;;5086651;28;20488;-63
2023/10/17 14:09:55;;;;;;;7.72;4.55;;;13.00;57.40;;;;;;5086961;28;20043;-60
2023/10/17 14:12:23;;;;;;;7.22;4.93;;;12.90;57.50;;;;;;5068606;28;20032;-61
2023/10/17 14:14:49;;;;;;;8.57;5.47;;;12.80;57.60;;;;;;5089415;28;20382;-61
2023/10/17 14:17:15;;;;;;;9.50;5.85;;;12.80;57.70;;;;;;5086335;28;20027;-61
2023/10/17 14:19:44;;;;;;;8.30;5.68;;;12.80;57.90;;;;;;5086665;28;20043;-62
2023/10/17 14:27:22;;;;;;;7.38;4.97;;;12.70;58.20;;;;;;5083872;28;20040;-61
2023/10/17 14:29:49;;;;;;;7.90;5.10;;;12.70;58.90;;;;;;5089908;28;20085;-60
2023/10/17 14:32:20;;;;;;;5.95;4.82;;;12.70;58.40;;;;;;5066158;28;20086;-61
2023/10/17 14:34:47;;;;;;;5.95;4.97;;;12.70;58.50;;;;;;5088681;28;20095;-60
2023/10/17 14:37:14;;;;;;;6.82;4.97;;;12.70;58.50;;;;;;5065531;28;20059;-61
2023/10/17 14:39:40;;;;;;;13.13;5.03;;;12.60;58.50;;;;;;5081570;28;20113;-61
2023/10/17 14:42:06;;;;;;;7.93;4.80;;;12.70;58.60;;;;;;5078891;28;20058;-62
2023/10/17 14:44:32;;;;;;;9.40;4.90;;;12.70;58.70;;;;;;5086528;28;20027;-62
2023/10/17 14:46:59;;;;;;;7.47;4.78;;;12.70;58.80;;;;;;5083085;28;20073;-61
2023/10/17 14:49:26;;;;;;;7.90;4.93;;;12.70;58.80;;;;;;5087166;28;20044;-62
2023/10/17 14:51:53;;;;;;;6.32;4.68;;;12.70;58.80;;;;;;5082869;28;20122;-61
2023/10/17 14:54:19;;;;;;;8.75;4.93;;;12.80;58.80;;;;;;5082982;28;20101;-61
2023/10/17 14:56:44;;;;;;;6.57;4.97;;;12.80;58.90;;;;;;5086503;28;20031;-61
2023/10/17 14:59:10;;;;;;;7.38;6.05;;;12.80;58.90;;;;;;5086787;28;20046;-61
2023/10/17 15:01:36;;;;;;;10.18;5.90;;;12.90;58.80;;;;;;5085003;28;20039;-61
2023/10/17 15:04:03;;;;;;;10.93;5.82;;;12.90;58.60;;;;;;5090660;28;20024;-61